IST,Max TemperatureF,Mean TemperatureF,Min TemperatureF,Max Dew PointF,MeanDew PointF,Min DewpointF,Max Humidity, Mean Humidity, Min Humidity, Max Sea Level PressureIn, Mean Sea Level PressureIn, Min Sea Level PressureIn, Max VisibilityMiles, Mean VisibilityMiles, Min VisibilityMiles, Max Wind SpeedMPH, Mean Wind SpeedMPH, Max Gust SpeedMPH,PrecipitationIn, CloudCover, Events, WindDirDegrees
2012-10-1,92,80,68,73,71,69,100,72,41,29.89,29.80,29.74,4,2,1,6,1,,0.00,1,,232
2012-10-2,93,80,67,74,71,68,100,73,46,29.83,29.77,29.71,4,3,1,8,4,,0.00,,,280
2012-10-3,94,80,66,75,70,66,100,71,35,29.77,29.71,29.60,4,2,1,5,1,,0.00,,,262
2012-10-4,95,80,66,75,69,63,94,71,52,29.71,29.69,29.63,4,3,1,2,0,,0.00,,,-1
2012-10-5,93,79,65,73,69,64,100,74,33,29.77,29.73,29.68,4,2,1,6,1,,0.00,,,290
2012-10-6,94,82,71,75,70,65,100,72,31,29.89,29.84,29.77,4,2,1,5,1,,0.00,,,282
2012-10-7,92,78,63,72,69,64,100,78,33,29.95,29.88,29.84,4,2,1,8,1,,0.00,,,283
2012-10-8,92,78,63,72,67,59,100,66,27,29.92,29.86,29.81,4,2,1,6,1,,0.00,,,258
2012-10-9,89,75,61,73,70,60,100,82,27,29.86,29.82,29.76,2,2,1,6,0,,0.00,,,-1
2012-10-10,92,78,64,76,69,61,100,75,36,29.92,29.86,29.80,4,2,1,6,0,,0.00,1,,260
2012-10-11,91,76,61,72,66,59,100,68,25,29.92,29.85,29.78,3,2,1,7,1,,0.00,,,250
2012-10-12,92,77,62,73,66,59,100,62,26,29.86,29.81,29.75,3,2,1,5,2,,0.00,1,,257
2012-10-13,92,77,62,70,66,62,100,75,30,29.92,29.85,29.79,2,2,1,4,0,,0.00,2,,280
2012-10-14,86,75,64,68,65,49,94,73,38,29.92,29.87,29.83,4,2,1,0,0,,0.00,1,,-1
2012-10-15,73,68,62,70,65,57,94,89,53,30.09,29.98,29.88,4,2,1,29,4,,0.20,7,Rain-Hail-Thunderstorm,271
2012-10-16,85,72,59,70,62,57,100,71,30,30.06,30.01,29.95,5,3,1,7,1,,0.20,2,,254
2012-10-17,86,76,67,67,64,61,84,64,38,30.06,30.00,29.93,4,2,1,6,1,,0.00,,,249
2012-10-18,87,73,59,68,63,57,94,79,37,30.04,29.98,29.92,4,2,1,7,0,,0.00,,,270
2012-10-19,87,72,57,66,62,56,100,74,48,30.01,29.97,29.89,4,2,1,6,1,,0.00,2,,275
2012-10-20,81,70,60,64,62,59,88,71,41,30.06,30.00,29.95,3,2,1,7,1,,0.00,3,,270
2012-10-21,87,73,59,69,62,57,94,71,36,30.09,30.02,29.96,4,2,1,6,1,,0.00,3,,260
2012-10-22,87,74,60,63,60,57,94,66,35,30.09,30.02,29.94,5,2,1,6,1,,0.00,2,,265
2012-10-23,86,72,59,70,60,52,94,65,40,30.04,29.98,29.92,4,2,1,23,2,,0.12,6,Rain-Thunderstorm,256
2012-10-24,86,71,56,64,59,55,94,69,31,30.01,29.95,29.88,4,3,2,7,3,,0.00,5,,293
2012-10-25,82,68,54,64,58,54,94,69,29,29.98,29.91,29.82,4,2,1,9,1,,0.00,,,295
2012-10-26,82,68,55,61,57,52,100,69,28,30.01,29.94,29.88,4,2,1,5,1,,0.00,,,270
2012-10-27,83,68,53,59,55,51,100,64,24,30.04,29.97,29.92,4,2,1,6,0,,0.00,2,,270
2012-10-28,84,68,53,68,60,52,94,69,40,30.06,29.99,29.93,4,2,1,5,0,,0.00,1,,280
2012-10-29,84,68,51,68,59,54,98,76,41,30.01,29.97,29.91,4,2,1,7,1,,0.00,,,265
2012-10-30,84,71,58,66,61,57,95,71,34,30.01,29.95,29.87,4,2,1,7,1,,0.00,,,271
2012-10-31,86,69,52,64,60,54,94,69,28,30.01,29.96,29.88,3,2,0,7,1,,0.00,,Fog,272